Time;durP1;ratioP1;P1;durP2;ratioP2;P2;SDS_P1;SDS_P2;PMS_P1;PMS_P2;Temp;Humidity;BMP_temperature;BMP_pressure;BME280_temperature;BME280_humidity;BME280_pressure;Samples;Min_cycle;Max_cycle;Signal;HPM_P1;HPM_P2
2023/06/23 00:01:46;;;;;;;3.97;2.00;;;;;;;;;;5061614;28;20626;-63
2023/06/23 00:04:13;;;;;;;2.58;2.38;;;;;;;;;;5054541;28;20230;-66
2023/06/23 00:06:41;;;;;;;2.55;2.35;;;;;;;;;;5037307;28;20809;-64
2023/06/23 00:09:13;;;;;;;2.72;2.53;;;;;;;;;;5058179;28;20205;-63
2023/06/23 00:11:42;;;;;;;4.03;2.78;;;;;;;;;;5056018;28;20309;-62
2023/06/23 00:14:11;;;;;;;4.20;2.75;;;;;;;;;;5045470;28;20788;-63
2023/06/23 00:16:39;;;;;;;3.33;2.88;;;;;;;;;;5049673;28;20209;-63
2023/06/23 00:19:07;;;;;;;5.53;3.30;;;;;;;;;;5054619;28;20205;-64
2023/06/23 00:21:34;;;;;;;3.50;3.20;;;;;;;;;;5035567;28;20698;-64
2023/06/23 00:24:01;;;;;;;4.93;3.20;;;;;;;;;;5062146;28;21646;-66
2023/06/23 00:26:29;;;;;;;3.33;3.03;;;;;;;;;;5040184;28;20198;-67
2023/06/23 00:28:56;;;;;;;3.50;3.20;;;;;;;;;;5061605;28;20221;-62
2023/06/23 00:31:23;;;;;;;5.25;3.72;;;;;;;;;;5057846;28;20206;-66
2023/06/23 00:33:50;;;;;;;4.82;3.40;;;;;;;;;;5065595;28;20229;-66
2023/06/23 00:36:18;;;;;;;3.40;3.05;;;;;;;;;;5063083;28;20258;-62
2023/06/23 00:38:45;;;;;;;4.95;3.17;;;;;;;;;;5056147;28;20251;-63
2023/06/23 00:41:12;;;;;;;5.40;3.38;;;;;;;;;;5072797;28;20208;-63
2023/06/23 00:43:39;;;;;;;4.90;3.33;;;;;;;;;;5062975;28;20298;-63
2023/06/23 00:46:08;;;;;;;4.60;3.58;;;;;;;;;;5056593;28;20256;-62
2023/06/23 00:48:36;;;;;;;3.90;3.30;;;;;;;;;;5051812;28;20203;-64
2023/06/23 00:51:03;;;;;;;4.32;3.47;;;;;;;;;;5055465;28;20209;-65
2023/06/23 00:53:30;;;;;;;4.88;3.47;;;;;;;;;;5060258;28;20235;-64
2023/06/23 00:55:59;;;;;;;3.92;3.33;;;;;;;;;;5067637;28;20210;-64
2023/06/23 00:58:28;;;;;;;4.03;3.42;;;;;;;;;;5066196;28;20218;-63
2023/06/23 01:00:56;;;;;;;4.88;3.28;;;;;;;;;;5067599;28;20206;-63
2023/06/23 01:03:23;;;;;;;5.10;3.13;;;;;;;;;;5058467;28;20229;-65
2023/06/23 01:05:52;;;;;;;3.90;2.92;;;;;;;;;;5063853;28;20229;-64
2023/06/23 01:08:37;;;;;;;4.35;3.13;;;;;;;;;;5054024;28;20198;-65
2023/06/23 01:11:08;;;;;;;5.25;3.67;;;;;;;;;;5064428;28;20210;-62
2023/06/23 01:13:43;;;;;;;6.50;3.00;;;;;;;;;;5061493;28;20707;-63
2023/06/23 01:16:13;;;;;;;4.85;3.42;;;;;;;;;;5056627;28;20236;-65
2023/06/23 01:18:48;;;;;;;2.97;2.67;;;;;;;;;;5042829;28;20200;-65
2023/06/23 01:21:19;;;;;;;3.25;2.95;;;;;;;;;;5059418;28;20739;-64
2023/06/23 01:23:55;;;;;;;2.58;2.38;;;;;;;;;;5058812;28;20229;-64
2023/06/23 01:26:42;;;;;;;3.08;2.47;;;;;;;;;;5044019;28;20292;-64
2023/06/23 01:29:10;;;;;;;3.05;2.45;;;;;;;;;;5062468;28;20201;-65
2023/06/23 01:31:43;;;;;;;3.58;2.38;;;;;;;;;;5052099;28;20545;-65
2023/06/23 01:34:15;;;;;;;2.40;2.20;;;;;;;;;;5054921;28;20737;-63
2023/06/23 01:36:45;;;;;;;2.40;2.20;;;;;;;;;;5056734;28;20202;-65
2023/06/23 01:39:14;;;;;;;2.88;2.38;;;;;;;;;;5064298;28;20613;-65
2023/06/23 01:41:46;;;;;;;3.03;2.53;;;;;;;;;;5058346;28;20215;-65
2023/06/23 01:44:15;;;;;;;2.60;2.40;;;;;;;;;;5055252;28;21370;-65
2023/06/23 01:46:45;;;;;;;2.55;2.33;;;;;;;;;;5065023;28;20255;-64
2023/06/23 01:49:15;;;;;;;2.65;2.22;;;;;;;;;;5059190;28;20208;-64
2023/06/23 01:51:46;;;;;;;2.28;2.08;;;;;;;;;;5055584;28;20202;-64
2023/06/23 01:54:14;;;;;;;1.55;1.45;;;;;;;;;;5054818;28;20896;-64
2023/06/23 01:56:43;;;;;;;1.90;1.80;;;;;;;;;;5060718;28;20931;-63
2023/06/23 01:59:11;;;;;;;1.92;1.83;;;;;;;;;;5041446;28;20680;-63
2023/06/23 02:01:40;;;;;;;2.47;1.90;;;;;;;;;;5053429;28;20213;-63
2023/06/23 02:04:07;;;;;;;2.10;2.00;;;;;;;;;;5059287;28;20225;-63
2023/06/23 02:06:37;;;;;;;2.30;2.08;;;;;;;;;;5055068;28;20196;-63
2023/06/23 02:09:05;;;;;;;3.05;2.30;;;;;;;;;;5057573;28;20197;-64
2023/06/23 02:11:34;;;;;;;1.80;1.70;;;;;;;;;;5049783;28;20206;-64
2023/06/23 02:14:03;;;;;;;2.08;1.98;;;;;;;;;;5060869;28;20240;-64
2023/06/23 02:16:33;;;;;;;2.67;2.47;;;;;;;;;;5056117;28;20214;-63
2023/06/23 02:19:02;;;;;;;4.43;3.28;;;;;;;;;;5059138;28;20206;-63
2023/06/23 02:21:30;;;;;;;3.60;3.30;;;;;;;;;;5059372;28;20702;-63
2023/06/23 02:24:01;;;;;;;4.18;3.83;;;;;;;;;;5057260;28;22685;-64
2023/06/23 02:26:29;;;;;;;3.55;3.25;;;;;;;;;;5059063;28;20211;-63
2023/06/23 02:28:56;;;;;;;4.10;3.67;;;;;;;;;;5046220;28;20210;-64
2023/06/23 02:31:24;;;;;;;4.47;3.70;;;;;;;;;;5066849;28;20223;-63
2023/06/23 02:33:52;;;;;;;4.40;4.00;;;;;;;;;;5066249;28;20225;-64
2023/06/23 02:36:20;;;;;;;4.20;3.90;;;;;;;;;;5065161;28;20202;-64
2023/06/23 02:38:49;;;;;;;3.33;3.03;;;;;;;;;;5084968;28;20435;-64
2023/06/23 02:41:17;;;;;;;3.67;3.38;;;;;;;;;;5066404;28;20616;-63
2023/06/23 02:43:51;;;;;;;4.00;3.60;;;;;;;;;;5056759;28;20470;-64
2023/06/23 02:46:20;;;;;;;3.15;2.95;;;;;;;;;;5064565;28;20681;-63
2023/06/23 02:48:49;;;;;;;2.85;2.65;;;;;;;;;;5072913;28;20666;-64
2023/06/23 02:51:18;;;;;;;3.00;2.70;;;;;;;;;;5071306;28;20659;-64
2023/06/23 02:53:48;;;;;;;2.83;2.63;;;;;;;;;;5071268;28;20635;-64
2023/06/23 02:56:18;;;;;;;2.95;2.75;;;;;;;;;;5070504;28;20213;-64
2023/06/23 02:58:49;;;;;;;3.50;2.83;;;;;;;;;;5070833;28;20198;-64
2023/06/23 03:01:17;;;;;;;2.83;2.63;;;;;;;;;;5072414;28;20212;-64
2023/06/23 03:03:45;;;;;;;4.28;3.97;;;;;;;;;;5060285;28;20229;-66
2023/06/23 03:06:19;;;;;;;6.15;5.60;;;;;;;;;;5067539;28;20255;-63
2023/06/23 03:08:50;;;;;;;6.90;6.30;;;;;;;;;;5070721;28;20205;-62
2023/06/23 03:11:21;;;;;;;7.80;7.10;;;;;;;;;;5071701;28;20201;-66
2023/06/23 03:13:49;;;;;;;6.95;6.35;;;;;;;;;;5071380;28;20228;-63
2023/06/23 03:16:19;;;;;;;7.20;6.50;;;;;;;;;;5064654;28;20209;-63
2023/06/23 03:18:54;;;;;;;7.00;6.30;;;;;;;;;;5062397;28;20202;-65
2023/06/23 03:21:22;;;;;;;6.45;5.85;;;;;;;;;;5065881;28;20215;-64
2023/06/23 03:23:51;;;;;;;8.13;7.32;;;;;;;;;;5058609;28;20322;-67
2023/06/23 03:26:20;;;;;;;7.00;6.30;;;;;;;;;;5055482;28;20206;-64
2023/06/23 03:28:52;;;;;;;7.05;6.32;;;;;;;;;;5063407;28;20217;-66
2023/06/23 03:31:19;;;;;;;9.45;7.10;;;;;;;;;;5052127;28;20287;-65
2023/06/23 03:33:48;;;;;;;8.65;7.28;;;;;;;;;;5062871;28;20309;-64
2023/06/23 03:36:22;;;;;;;6.65;6.05;;;;;;;;;;5059455;28;20209;-63
2023/06/23 03:38:54;;;;;;;6.15;5.65;;;;;;;;;;5060950;28;20214;-66
2023/06/23 03:41:22;;;;;;;5.47;5.07;;;;;;;;;;5063094;28;20284;-65
2023/06/23 03:43:57;;;;;;;6.32;5.72;;;;;;;;;;5058308;28;20978;-64
2023/06/23 03:46:26;;;;;;;6.90;5.88;;;;;;;;;;5064916;28;20659;-63
2023/06/23 03:48:56;;;;;;;6.32;5.75;;;;;;;;;;5059006;28;20655;-65
2023/06/23 03:51:26;;;;;;;6.50;5.90;;;;;;;;;;5061255;28;20198;-68
2023/06/23 03:53:54;;;;;;;6.88;6.20;;;;;;;;;;5062060;28;20229;-65
2023/06/23 03:56:23;;;;;;;7.90;6.25;;;;;;;;;;5059211;28;20339;-64
2023/06/23 03:58:51;;;;;;;7.60;6.90;;;;;;;;;;5063535;28;20206;-68
2023/06/23 04:01:20;;;;;;;8.38;7.22;;;;;;;;;;5059670;28;20209;-66
2023/06/23 04:03:52;;;;;;;8.65;6.85;;;;;;;;;;5060988;28;20312;-66
2023/06/23 04:06:20;;;;;;;8.20;7.40;;;;;;;;;;5069163;28;20208;-63
2023/06/23 04:08:48;;;;;;;8.00;7.20;;;;;;;;;;5047490;28;20606;-63
2023/06/23 04:11:16;;;;;;;8.73;7.93;;;;;;;;;;5067245;28;20201;-63
2023/06/23 04:13:43;;;;;;;9.07;8.27;;;;;;;;;;5059801;28;20232;-65
2023/06/23 04:16:11;;;;;;;8.88;8.07;;;;;;;;;;5059988;28;20558;-63
2023/06/23 04:18:39;;;;;;;9.68;8.68;;;;;;;;;;5056171;28;20216;-63
2023/06/23 04:21:07;;;;;;;9.95;8.95;;;;;;;;;;5050269;28;20679;-65
2023/06/23 04:23:35;;;;;;;10.43;9.43;;;;;;;;;;5059155;28;20236;-64
2023/06/23 04:26:04;;;;;;;10.70;9.60;;;;;;;;;;5061401;28;20621;-65
2023/06/23 04:28:33;;;;;;;12.10;10.80;;;;;;;;;;5061145;28;20328;-63
2023/06/23 04:31:04;;;;;;;11.30;10.02;;;;;;;;;;5062543;28;20224;-64
2023/06/23 04:33:31;;;;;;;11.38;10.20;;;;;;;;;;5046423;28;20221;-65
2023/06/23 04:36:02;;;;;;;11.10;10.10;;;;;;;;;;5063486;28;20197;-66
2023/06/23 04:38:33;;;;;;;11.38;10.27;;;;;;;;;;5061468;28;20194;-67
2023/06/23 04:41:01;;;;;;;12.25;10.27;;;;;;;;;;5055314;28;20259;-63
2023/06/23 04:43:31;;;;;;;12.32;11.10;;;;;;;;;;5052955;28;20306;-63
2023/06/23 04:46:03;;;;;;;11.88;10.68;;;;;;;;;;5039829;28;20820;-64
2023/06/23 04:48:31;;;;;;;12.67;11.20;;;;;;;;;;5059146;28;20198;-64
2023/06/23 04:51:00;;;;;;;15.47;11.80;;;;;;;;;;5064243;28;20201;-65
2023/06/23 04:53:32;;;;;;;12.48;11.18;;;;;;;;;;5058131;28;20643;-65
2023/06/23 04:56:02;;;;;;;15.20;13.70;;;;;;;;;;5058651;28;20204;-64
2023/06/23 04:58:31;;;;;;;15.38;13.65;;;;;;;;;;5045323;28;20209;-65
2023/06/23 05:01:00;;;;;;;16.17;14.38;;;;;;;;;;5041389;28;20231;-64
2023/06/23 05:03:28;;;;;;;15.32;13.75;;;;;;;;;;5062057;28;20279;-65
2023/06/23 05:05:56;;;;;;;16.85;15.15;;;;;;;;;;5055758;28;20221;-63
2023/06/23 05:08:25;;;;;;;19.67;16.98;;;;;;;;;;5062635;28;20597;-65
2023/06/23 05:10:54;;;;;;;18.83;16.17;;;;;;;;;;5055896;28;20201;-64
2023/06/23 05:13:26;;;;;;;18.75;16.73;;;;;;;;;;5046922;28;20225;-64
2023/06/23 05:15:54;;;;;;;17.70;15.35;;;;;;;;;;5059457;28;20209;-63
2023/06/23 05:18:22;;;;;;;18.30;16.40;;;;;;;;;;5063300;28;20225;-65
2023/06/23 05:20:52;;;;;;;19.63;17.08;;;;;;;;;;5061300;28;20202;-64
2023/06/23 05:23:19;;;;;;;19.55;17.13;;;;;;;;;;5041644;28;20776;-64
2023/06/23 05:25:49;;;;;;;22.00;17.63;;;;;;;;;;5057759;28;20221;-63
2023/06/23 05:28:19;;;;;;;19.15;17.15;;;;;;;;;;5045541;28;20202;-66
2023/06/23 05:30:48;;;;;;;23.70;18.80;;;;;;;;;;5056142;28;20211;-63
2023/06/23 05:33:17;;;;;;;21.90;17.92;;;;;;;;;;5057436;28;21140;-64
2023/06/23 05:35:45;;;;;;;20.98;18.48;;;;;;;;;;5056287;28;20197;-62
2023/06/23 05:38:16;;;;;;;21.25;18.00;;;;;;;;;;5035346;28;20247;-65
2023/06/23 05:40:44;;;;;;;23.00;18.80;;;;;;;;;;5047638;28;20605;-65
2023/06/23 05:43:11;;;;;;;22.17;19.45;;;;;;;;;;5056168;28;20217;-66
2023/06/23 05:45:38;;;;;;;22.05;19.50;;;;;;;;;;5059323;28;20232;-64
2023/06/23 05:48:06;;;;;;;21.30;19.10;;;;;;;;;;5041318;28;20235;-65
2023/06/23 05:50:35;;;;;;;24.02;20.17;;;;;;;;;;5044234;28;20252;-66
2023/06/23 05:53:10;;;;;;;27.02;22.92;;;;;;;;;;5057230;28;20698;-62
2023/06/23 05:55:46;;;;;;;24.40;21.58;;;;;;;;;;5042137;28;20572;-64
2023/06/23 05:58:14;;;;;;;25.20;21.70;;;;;;;;;;5048862;28;20231;-67
2023/06/23 06:00:47;;;;;;;26.13;22.05;;;;;;;;;;5063315;28;20217;-62
2023/06/23 06:03:18;;;;;;;26.35;21.55;;;;;;;;;;5059016;28;20226;-66
2023/06/23 06:05:48;;;;;;;24.08;21.48;;;;;;;;;;5066286;28;20291;-64
2023/06/23 06:08:16;;;;;;;28.52;23.90;;;;;;;;;;5065672;28;20274;-62
2023/06/23 06:10:44;;;;;;;25.77;21.90;;;;;;;;;;5065823;28;20201;-62
2023/06/23 06:13:13;;;;;;;28.33;22.83;;;;;;;;;;5064161;28;20222;-62
2023/06/23 06:15:43;;;;;;;27.05;23.08;;;;;;;;;;5068331;28;20201;-64
2023/06/23 06:18:11;;;;;;;30.00;25.27;;;;;;;;;;5067229;28;20198;-61
2023/06/23 06:20:42;;;;;;;28.75;24.85;;;;;;;;;;5062292;28;20232;-65
2023/06/23 06:23:10;;;;;;;26.63;23.40;;;;;;;;;;5061352;28;20253;-63
2023/06/23 06:25:53;;;;;;;28.35;23.50;;;;;;;;;;5065655;28;20678;-62
2023/06/23 06:28:21;;;;;;;32.53;25.85;;;;;;;;;;5069987;28;20200;-64
2023/06/23 06:30:50;;;;;;;28.10;24.20;;;;;;;;;;5054472;28;20206;-63
2023/06/23 06:33:18;;;;;;;28.73;24.65;;;;;;;;;;5047469;28;20221;-62
2023/06/23 06:35:48;;;;;;;29.23;25.98;;;;;;;;;;5055949;28;20287;-62
2023/06/23 06:38:16;;;;;;;31.05;26.15;;;;;;;;;;5033481;28;20201;-61
2023/06/23 06:40:46;;;;;;;29.77;25.85;;;;;;;;;;5051927;28;20213;-64
2023/06/23 06:43:14;;;;;;;28.92;25.42;;;;;;;;;;5052162;28;20298;-64
2023/06/23 06:45:41;;;;;;;31.30;25.58;;;;;;;;;;5045863;28;20225;-66
2023/06/23 06:48:11;;;;;;;30.52;25.77;;;;;;;;;;5047534;28;20284;-65
2023/06/23 06:50:38;;;;;;;30.17;25.88;;;;;;;;;;5052728;28;20577;-65
2023/06/23 06:53:07;;;;;;;31.52;25.95;;;;;;;;;;5042000;28;20307;-63
2023/06/23 06:55:34;;;;;;;31.83;27.15;;;;;;;;;;5050350;28;20668;-64
2023/06/23 06:58:02;;;;;;;30.88;27.35;;;;;;;;;;5048861;28;20204;-65
2023/06/23 07:00:30;;;;;;;32.38;27.33;;;;;;;;;;5051874;28;20277;-70
2023/06/23 07:02:59;;;;;;;31.85;26.27;;;;;;;;;;5037684;28;20232;-62
2023/06/23 07:05:26;;;;;;;30.80;26.55;;;;;;;;;;5053992;28;20233;-65
2023/06/23 07:07:54;;;;;;;29.90;26.60;;;;;;;;;;5057757;28;20202;-66
2023/06/23 07:10:21;;;;;;;29.60;26.40;;;;;;;;;;5054703;28;20824;-62
2023/06/23 07:12:49;;;;;;;33.10;26.50;;;;;;;;;;5064684;28;20295;-62
2023/06/23 07:15:16;;;;;;;31.17;26.30;;;;;;;;;;5053865;28;20221;-64
2023/06/23 07:17:43;;;;;;;31.30;26.90;;;;;;;;;;5061402;28;20209;-62
2023/06/23 07:20:11;;;;;;;29.38;26.17;;;;;;;;;;5065709;28;20613;-63
2023/06/23 07:22:39;;;;;;;29.85;26.65;;;;;;;;;;5059342;28;20228;-63
2023/06/23 07:25:06;;;;;;;28.75;24.58;;;;;;;;;;5052741;28;20221;-63
2023/06/23 07:27:34;;;;;;;29.92;26.58;;;;;;;;;;5059733;28;20259;-63
2023/06/23 07:30:01;;;;;;;27.67;24.67;;;;;;;;;;5058108;28;20619;-62
2023/06/23 07:32:28;;;;;;;26.92;24.05;;;;;;;;;;5059167;28;20720;-62
2023/06/23 07:34:56;;;;;;;27.48;24.55;;;;;;;;;;5062346;28;20291;-62
2023/06/23 07:37:23;;;;;;;27.90;24.17;;;;;;;;;;5068156;28;20422;-64
2023/06/23 07:39:50;;;;;;;26.45;23.33;;;;;;;;;;5060119;28;20221;-62
2023/06/23 07:42:18;;;;;;;26.88;23.95;;;;;;;;;;5049078;28;20237;-63
2023/06/23 07:44:45;;;;;;;30.00;23.80;;;;;;;;;;5062313;28;20271;-62
2023/06/23 07:47:12;;;;;;;26.75;23.85;;;;;;;;;;5061644;28;20615;-62
2023/06/23 07:49:41;;;;;;;28.52;24.80;;;;;;;;;;5057407;28;20197;-62
2023/06/23 07:52:10;;;;;;;27.13;23.80;;;;;;;;;;5058926;28;20198;-62
2023/06/23 07:54:39;;;;;;;26.70;23.88;;;;;;;;;;5053589;28;20217;-62
2023/06/23 07:57:08;;;;;;;32.28;24.30;;;;;;;;;;5052725;28;20204;-62
2023/06/23 07:59:35;;;;;;;26.77;23.60;;;;;;;;;;5047494;28;20217;-62
2023/06/23 08:02:03;;;;;;;27.92;24.45;;;;;;;;;;5039338;28;20680;-63
2023/06/23 08:04:31;;;;;;;26.75;24.02;;;;;;;;;;5051992;28;20645;-63
2023/06/23 08:06:58;;;;;;;26.42;23.73;;;;;;;;;;5055933;28;20660;-62
2023/06/23 08:09:26;;;;;;;25.83;23.13;;;;;;;;;;5060123;28;20207;-63
2023/06/23 08:11:53;;;;;;;28.85;24.55;;;;;;;;;;5056056;28;20209;-63
2023/06/23 08:14:20;;;;;;;26.00;23.20;;;;;;;;;;5056199;28;20221;-63
2023/06/23 08:16:48;;;;;;;25.75;23.05;;;;;;;;;;5066608;28;20201;-63
2023/06/23 08:19:21;;;;;;;26.17;23.38;;;;;;;;;;5059623;28;20690;-64
2023/06/23 08:21:49;;;;;;;24.75;22.23;;;;;;;;;;5057923;28;20205;-62
2023/06/23 08:24:16;;;;;;;24.85;22.35;;;;;;;;;;5056169;28;20225;-62
2023/06/23 08:26:44;;;;;;;24.52;21.92;;;;;;;;;;5055859;28;20258;-62
2023/06/23 08:29:12;;;;;;;26.60;22.88;;;;;;;;;;5039902;28;20310;-64
2023/06/23 08:31:39;;;;;;;25.27;22.70;;;;;;;;;;5041018;28;20205;-64
2023/06/23 08:34:07;;;;;;;24.50;21.77;;;;;;;;;;5062976;28;20234;-63
2023/06/23 08:36:34;;;;;;;23.80;21.23;;;;;;;;;;5060421;28;20665;-62
2023/06/23 08:39:02;;;;;;;23.60;21.10;;;;;;;;;;5058725;28;20247;-66
2023/06/23 08:41:30;;;;;;;24.17;21.50;;;;;;;;;;5074331;28;20515;-62
2023/06/23 08:44:00;;;;;;;23.83;21.33;;;;;;;;;;5057870;28;20221;-61
2023/06/23 08:46:30;;;;;;;25.98;23.08;;;;;;;;;;5054972;28;20221;-62
2023/06/23 08:48:58;;;;;;;24.92;22.23;;;;;;;;;;5063355;28;20200;-63
2023/06/23 08:51:25;;;;;;;25.08;22.50;;;;;;;;;;5059632;28;20477;-61
2023/06/23 08:53:52;;;;;;;25.33;21.52;;;;;;;;;;5062663;28;20221;-61
2023/06/23 08:56:20;;;;;;;25.52;21.45;;;;;;;;;;5059770;28;20212;-61
2023/06/23 08:58:51;;;;;;;22.98;20.60;;;;;;;;;;5055154;28;20201;-62
2023/06/23 09:01:18;;;;;;;20.95;18.80;;;;;;;;;;5061297;28;20209;-62
2023/06/23 09:03:45;;;;;;;19.45;17.33;;;;;;;;;;5051730;28;20231;-61
2023/06/23 09:06:13;;;;;;;19.92;17.83;;;;;;;;;;5051399;28;20359;-61
2023/06/23 09:08:40;;;;;;;19.25;17.23;;;;;;;;;;5058610;28;20289;-63
2023/06/23 09:11:07;;;;;;;19.40;17.48;;;;;;;;;;5041960;28;20219;-63
2023/06/23 09:13:35;;;;;;;18.85;16.92;;;;;;;;;;5038043;28;20279;-62
2023/06/23 09:16:03;;;;;;;20.92;18.35;;;;;;;;;;5054234;28;20220;-62
2023/06/23 09:18:40;;;;;;;20.40;18.30;;;;;;;;;;5049798;28;20237;-63
2023/06/23 09:21:10;;;;;;;20.75;17.83;;;;;;;;;;5053766;28;20206;-62
2023/06/23 09:23:37;;;;;;;19.60;17.60;;;;;;;;;;5055382;28;20771;-64
2023/06/23 09:26:06;;;;;;;19.45;17.45;;;;;;;;;;5054817;28;20228;-65
2023/06/23 09:28:35;;;;;;;18.27;14.32;;;;;;;;;;5059603;28;20710;-62
2023/06/23 09:31:13;;;;;;;14.23;12.73;;;;;;;;;;5057309;28;20232;-62
2023/06/23 09:33:50;;;;;;;14.80;13.32;;;;;;;;;;5044302;28;20249;-63
2023/06/23 09:36:17;;;;;;;15.85;14.32;;;;;;;;;;5056085;28;20205;-62
2023/06/23 09:38:45;;;;;;;18.90;13.45;;;;;;;;;;5052564;28;20218;-62
2023/06/23 09:41:13;;;;;;;14.43;12.93;;;;;;;;;;5047512;28;20274;-63
2023/06/23 09:43:42;;;;;;;13.15;11.85;;;;;;;;;;5056305;28;20337;-62
2023/06/23 09:46:10;;;;;;;12.70;11.40;;;;;;;;;;5058694;28;20226;-63
2023/06/23 09:48:40;;;;;;;10.60;9.60;;;;;;;;;;5050774;28;20205;-62
2023/06/23 09:51:07;;;;;;;11.70;9.73;;;;;;;;;;5034121;28;20193;-61
2023/06/23 09:53:36;;;;;;;9.25;8.25;;;;;;;;;;5051158;28;20299;-63
2023/06/23 09:56:04;;;;;;;9.25;7.13;;;;;;;;;;5039052;28;20605;-64
2023/06/23 09:58:33;;;;;;;9.90;8.90;;;;;;;;;;5052318;28;20229;-63
2023/06/23 10:01:01;;;;;;;12.80;9.75;;;;;;;;;;5057207;28;20440;-63
2023/06/23 10:03:32;;;;;;;10.55;9.52;;;;;;;;;;5054045;28;20232;-61
2023/06/23 10:06:00;;;;;;;10.25;9.25;;;;;;;;;;5054655;28;20229;-62
2023/06/23 10:08:27;;;;;;;10.10;9.07;;;;;;;;;;5051686;28;20210;-64
2023/06/23 10:10:55;;;;;;;11.27;8.45;;;;;;;;;;5045768;28;20248;-62
2023/06/23 10:13:22;;;;;;;10.57;9.48;;;;;;;;;;5051183;28;20236;-64
2023/06/23 10:15:50;;;;;;;12.00;9.82;;;;;;;;;;5044103;28;20685;-62
2023/06/23 10:18:17;;;;;;;12.23;11.02;;;;;;;;;;5056968;28;20283;-63
2023/06/23 10:20:45;;;;;;;12.63;11.32;;;;;;;;;;5033559;28;20210;-64
2023/06/23 10:23:16;;;;;;;12.30;11.10;;;;;;;;;;5047278;28;20228;-62
2023/06/23 10:25:45;;;;;;;13.52;11.07;;;;;;;;;;5044679;28;20220;-62
2023/06/23 10:28:13;;;;;;;12.75;11.38;;;;;;;;;;5060303;28;20281;-62
2023/06/23 10:30:41;;;;;;;10.98;9.88;;;;;;;;;;5051334;28;20291;-61
2023/06/23 10:33:14;;;;;;;13.15;9.15;;;;;;;;;;5050066;28;20228;-62
2023/06/23 10:35:41;;;;;;;10.35;7.70;;;;;;;;;;5059022;28;20210;-63
2023/06/23 10:38:12;;;;;;;7.30;6.60;;;;;;;;;;5061102;28;20214;-63
2023/06/23 10:40:43;;;;;;;6.13;5.57;;;;;;;;;;5069021;28;20627;-64
2023/06/23 10:43:12;;;;;;;7.75;6.78;;;;;;;;;;5045211;28;20245;-62
2023/06/23 10:45:39;;;;;;;11.73;9.18;;;;;;;;;;5041139;28;20585;-62
2023/06/23 10:48:07;;;;;;;12.35;10.57;;;;;;;;;;5062755;28;20293;-62
2023/06/23 10:50:37;;;;;;;12.63;11.32;;;;;;;;;;5049455;28;20297;-62
2023/06/23 10:53:10;;;;;;;12.23;10.70;;;;;;;;;;5044888;28;20307;-62
2023/06/23 10:55:42;;;;;;;12.90;11.48;;;;;;;;;;5044794;28;20232;-66
2023/06/23 10:58:30;;;;;;;11.57;10.38;;;;;;;;;;5070245;28;20746;-63
2023/06/23 11:00:58;;;;;;;12.23;9.52;;;;;;;;;;5062263;28;20296;-65
2023/06/23 11:03:27;;;;;;;9.65;8.75;;;;;;;;;;5065922;28;20313;-61
2023/06/23 11:05:55;;;;;;;6.88;6.28;;;;;;;;;;5065681;28;20225;-61
2023/06/23 11:08:50;;;;;;;7.75;5.72;;;;;;;;;;5073190;28;20223;-65
2023/06/23 11:11:30;;;;;;;6.70;6.05;;;;;;;;;;5060155;28;20259;-65
2023/06/23 11:13:57;;;;;;;6.88;6.22;;;;;;;;;;5063034;28;20221;-62
2023/06/23 11:16:29;;;;;;;5.55;4.97;;;;;;;;;;5059269;28;20271;-62
2023/06/23 11:18:57;;;;;;;6.82;5.03;;;;;;;;;;5064900;28;20205;-65
2023/06/23 11:21:28;;;;;;;6.05;5.47;;;;;;;;;;5067245;28;20512;-64
2023/06/23 11:24:14;;;;;;;7.03;5.70;;;;;;;;;;5051565;28;20233;-64
2023/06/23 11:26:43;;;;;;;5.20;4.70;;;;;;;;;;5067967;28;20229;-64
2023/06/23 11:29:17;;;;;;;5.57;4.90;;;;;;;;;;5063864;28;20247;-65
2023/06/23 11:32:04;;;;;;;6.40;5.10;;;;;;;;;;5060839;28;20736;-67
2023/06/23 11:34:56;;;;;;;10.57;5.20;;;;;;;;;;5066934;28;20208;-63
2023/06/23 11:37:27;;;;;;;6.05;5.45;;;;;;;;;;5042985;28;20634;-64
2023/06/23 11:39:55;;;;;;;6.10;5.60;;;;;;;;;;5061007;28;20405;-63
2023/06/23 11:42:23;;;;;;;6.55;5.95;;;;;;;;;;5060532;28;20407;-64
2023/06/23 11:44:50;;;;;;;5.30;4.80;;;;;;;;;;5048764;28;20197;-63
2023/06/23 11:47:23;;;;;;;5.70;5.10;;;;;;;;;;5062693;28;20244;-63
2023/06/23 11:49:51;;;;;;;5.30;4.80;;;;;;;;;;5066969;28;20313;-62
2023/06/23 11:52:20;;;;;;;4.90;4.43;;;;;;;;;;5062861;28;20290;-63
2023/06/23 11:54:51;;;;;;;4.70;4.13;;;;;;;;;;5060783;28;20205;-64
2023/06/23 11:57:20;;;;;;;4.60;4.20;;;;;;;;;;5061965;28;20236;-64
2023/06/23 11:59:48;;;;;;;5.20;4.70;;;;;;;;;;5061848;28;20463;-64
2023/06/23 12:02:15;;;;;;;5.13;4.32;;;;;;;;;;5062720;28;20210;-64
2023/06/23 12:04:43;;;;;;;5.72;4.70;;;;;;;;;;5047282;28;20222;-64
2023/06/23 12:07:10;;;;;;;4.70;4.30;;;;;;;;;;5060295;28;20232;-63
2023/06/23 12:09:42;;;;;;;5.80;5.30;;;;;;;;;;5060139;28;20201;-64
2023/06/23 12:12:10;;;;;;;5.70;5.15;;;;;;;;;;5067340;28;20206;-64
2023/06/23 12:14:44;;;;;;;6.95;4.43;;;;;;;;;;5059773;28;20201;-65
2023/06/23 12:17:13;;;;;;;4.40;4.10;;;;;;;;;;5053045;28;20290;-64
2023/06/23 12:19:44;;;;;;;4.28;3.60;;;;;;;;;;5048297;28;20725;-65
2023/06/23 12:22:16;;;;;;;5.43;3.83;;;;;;;;;;5057995;28;20329;-64
2023/06/23 12:24:45;;;;;;;3.78;3.47;;;;;;;;;;5067977;28;20985;-63
2023/06/23 12:27:12;;;;;;;4.97;4.47;;;;;;;;;;5064516;28;20244;-64
2023/06/23 12:29:40;;;;;;;5.82;4.53;;;;;;;;;;5071803;28;20577;-64
2023/06/23 12:32:07;;;;;;;5.40;4.53;;;;;;;;;;5055395;28;20643;-63
2023/06/23 12:34:45;;;;;;;5.15;4.75;;;;;;;;;;5049306;28;20655;-65
2023/06/23 12:37:14;;;;;;;5.40;4.90;;;;;;;;;;5061840;28;20251;-65
2023/06/23 12:39:54;;;;;;;5.55;5.05;;;;;;;;;;5063875;28;20194;-64
2023/06/23 12:42:23;;;;;;;5.00;4.60;;;;;;;;;;5066815;28;20225;-65
2023/06/23 12:44:50;;;;;;;5.40;3.95;;;;;;;;;;5064686;28;20300;-64
2023/06/23 12:47:18;;;;;;;4.68;4.10;;;;;;;;;;5064768;28;20328;-65
2023/06/23 12:49:46;;;;;;;5.25;4.20;;;;;;;;;;5045534;28;20209;-64
2023/06/23 12:52:15;;;;;;;4.68;4.22;;;;;;;;;;5067708;28;20202;-63
2023/06/23 12:54:43;;;;;;;7.20;4.32;;;;;;;;;;5056529;28;20395;-63
2023/06/23 12:57:11;;;;;;;4.22;3.83;;;;;;;;;;5064869;28;20213;-63
2023/06/23 12:59:38;;;;;;;4.28;3.95;;;;;;;;;;5061411;28;20214;-63
2023/06/23 13:02:06;;;;;;;4.45;4.05;;;;;;;;;;5058742;28;20209;-65
2023/06/23 13:04:33;;;;;;;5.40;4.00;;;;;;;;;;5051831;28;20208;-65
2023/06/23 13:07:02;;;;;;;4.35;4.05;;;;;;;;;;5071257;28;20217;-65
2023/06/23 13:09:29;;;;;;;4.88;4.05;;;;;;;;;;5065975;28;20623;-64
2023/06/23 13:11:57;;;;;;;4.13;3.70;;;;;;;;;;5044021;28;20785;-66
2023/06/23 13:14:25;;;;;;;4.50;4.10;;;;;;;;;;5040907;28;20197;-65
2023/06/23 13:16:52;;;;;;;4.20;3.78;;;;;;;;;;5051726;28;20530;-63
2023/06/23 13:19:20;;;;;;;4.90;4.40;;;;;;;;;;5047752;28;20204;-65
2023/06/23 13:21:51;;;;;;;4.97;4.32;;;;;;;;;;5059804;28;20219;-63
2023/06/23 13:24:18;;;;;;;6.18;4.13;;;;;;;;;;5052945;28;20241;-63
2023/06/23 13:26:47;;;;;;;4.72;3.85;;;;;;;;;;5055613;28;20680;-65
2023/06/23 13:29:15;;;;;;;4.97;4.53;;;;;;;;;;5057034;28;20582;-61
2023/06/23 13:31:44;;;;;;;4.80;4.28;;;;;;;;;;5047362;28;20218;-61
2023/06/23 13:34:12;;;;;;;5.10;4.05;;;;;;;;;;5054870;28;20695;-64
2023/06/23 13:36:40;;;;;;;5.60;4.22;;;;;;;;;;5043896;28;20217;-65
2023/06/23 13:39:07;;;;;;;4.43;4.03;;;;;;;;;;5027293;28;20218;-65
2023/06/23 13:41:34;;;;;;;5.05;4.55;;;;;;;;;;5061231;28;20216;-65
2023/06/23 13:44:02;;;;;;;4.57;4.18;;;;;;;;;;5051052;28;20225;-64
2023/06/23 13:46:29;;;;;;;4.70;4.30;;;;;;;;;;5060666;28;20282;-62
2023/06/23 13:48:56;;;;;;;8.80;4.78;;;;;;;;;;5039398;28;20202;-64
2023/06/23 13:51:24;;;;;;;5.53;4.78;;;;;;;;;;5052702;28;20590;-62
2023/06/23 13:53:51;;;;;;;5.43;4.78;;;;;;;;;;5033083;28;20226;-64
2023/06/23 13:56:19;;;;;;;5.05;3.90;;;;;;;;;;5032086;28;20220;-63
2023/06/23 13:58:46;;;;;;;4.38;3.97;;;;;;;;;;5053036;28;20210;-64
2023/06/23 14:01:13;;;;;;;4.43;4.00;;;;;;;;;;5051454;28;20205;-64
2023/06/23 14:03:41;;;;;;;4.40;3.60;;;;;;;;;;5055786;28;20238;-64
2023/06/23 14:06:09;;;;;;;4.60;3.90;;;;;;;;;;5052453;28;20687;-65
2023/06/23 14:08:36;;;;;;;4.35;4.00;;;;;;;;;;5058338;28;20217;-63
2023/06/23 14:11:03;;;;;;;4.45;4.05;;;;;;;;;;5061303;28;20201;-62
2023/06/23 14:13:31;;;;;;;4.03;3.35;;;;;;;;;;5060752;28;20217;-65
2023/06/23 14:15:58;;;;;;;3.95;3.65;;;;;;;;;;5059344;28;20202;-65
2023/06/23 14:18:28;;;;;;;4.15;3.75;;;;;;;;;;5039290;28;20198;-65
2023/06/23 14:20:55;;;;;;;3.83;3.53;;;;;;;;;;5054142;28;20210;-65
2023/06/23 14:23:24;;;;;;;3.97;3.60;;;;;;;;;;5060685;28;20341;-61
2023/06/23 14:25:53;;;;;;;3.72;3.47;;;;;;;;;;5046977;28;20197;-63
2023/06/23 14:28:20;;;;;;;4.00;3.70;;;;;;;;;;5046049;28;20653;-62
2023/06/23 14:30:49;;;;;;;4.80;3.80;;;;;;;;;;5046621;28;20282;-61
2023/06/23 14:33:16;;;;;;;3.90;3.60;;;;;;;;;;5047010;28;20233;-64
2023/06/23 14:35:44;;;;;;;4.43;4.03;;;;;;;;;;5055976;28;20255;-63
2023/06/23 14:38:11;;;;;;;4.05;3.75;;;;;;;;;;5056485;28;20232;-65
2023/06/23 14:40:40;;;;;;;4.22;3.92;;;;;;;;;;5036774;28;20206;-64
2023/06/23 14:43:07;;;;;;;4.30;3.83;;;;;;;;;;5065971;28;20225;-63